Terminal Aerodrome Forecast
Issued by NWS Huntsville, AL

Home | Current Version | Previous Version | Text Only | Print | Product List | Glossary On
Versions: 1 2 3 4 5 6 7 8 9 10 11 12 13 14 15 16 17 18 19 20 21 22 23 24 25 26 27 28
000
FTUS44 KHUN 022340
TAFHSV
TAF
KHSV 022340Z 0300/0324 24011KT P6SM SCT050 BKN130 BKN250
     FM030400 24007KT P6SM VCTS BKN040CB BKN070 BKN250
      TEMPO 0310/0314 TSRA BKN025CB OVC040
     FM031600 24012G20KT P6SM SCT030 BKN070 OVC150=

USA.gov is the U.S. government's official web portal to all federal, state and local government web resources and services.